Time;durP1;ratioP1;P1;durP2;ratioP2;P2;SDS_P1;SDS_P2;PMS_P1;PMS_P2;Temp;Humidity;BMP_temperature;BMP_pressure;BME280_temperature;BME280_humidity;BME280_pressure;Samples;Min_cycle;Max_cycle;Signal;HPM_P1;HPM_P2
2023/10/21 00:00:06;;;;;;;14.68;6.05;;;11.70;99.90;;;;;;5041983;28;20040;-71
2023/10/21 00:02:32;;;;;;;10.15;6.13;;;11.70;99.90;;;;;;5044190;28;20037;-71
2023/10/21 00:04:57;;;;;;;15.25;6.57;;;11.70;99.90;;;;;;5045803;28;20446;-71
2023/10/21 00:07:23;;;;;;;9.43;6.30;;;11.70;99.90;;;;;;5041862;28;20167;-71
2023/10/21 00:09:48;;;;;;;15.45;7.00;;;11.60;99.90;;;;;;5051724;28;20025;-71
2023/10/21 00:12:14;;;;;;;12.40;6.35;;;11.60;99.90;;;;;;5048111;28;20029;-71
2023/10/21 00:14:39;;;;;;;14.27;6.95;;;11.60;99.90;;;;;;5052239;28;20036;-71
2023/10/21 00:17:05;;;;;;;10.52;6.32;;;11.60;99.90;;;;;;5051086;28;20025;-71
2023/10/21 00:19:31;;;;;;;16.67;7.43;;;11.50;99.90;;;;;;5050188;28;20044;-70
2023/10/21 00:21:56;;;;;;;13.25;6.80;;;11.50;99.90;;;;;;5047891;28;20485;-71
2023/10/21 00:24:22;;;;;;;19.15;6.97;;;11.50;99.90;;;;;;5049452;28;20033;-71
2023/10/21 00:26:48;;;;;;;10.05;6.40;;;11.40;99.90;;;;;;5050227;28;20025;-71
2023/10/21 00:29:14;;;;;;;14.25;7.32;;;11.40;99.90;;;;;;5051408;28;20120;-71
2023/10/21 00:31:43;;;;;;;17.73;7.47;;;11.40;99.90;;;;;;5047182;28;20040;-71
2023/10/21 00:34:12;;;;;;;12.85;7.00;;;11.30;99.90;;;;;;5049460;28;20104;-71
2023/10/21 00:36:38;;;;;;;14.60;8.15;;;11.30;99.90;;;;;;5047887;28;20052;-71
2023/10/21 00:39:10;;;;;;;14.38;7.82;;;11.30;99.90;;;;;;5049776;28;20033;-71
2023/10/21 00:41:36;;;;;;;12.80;7.45;;;11.30;99.90;;;;;;5051493;28;20370;-71
2023/10/21 00:44:01;;;;;;;13.90;8.27;;;11.20;99.90;;;;;;5048566;28;20134;-70
2023/10/21 00:46:27;;;;;;;15.20;8.85;;;11.20;99.90;;;;;;5050550;28;20025;-71
2023/10/21 00:48:52;;;;;;;16.35;9.07;;;11.20;99.90;;;;;;5049122;28;20021;-71
2023/10/21 00:51:19;;;;;;;14.07;8.80;;;11.20;99.90;;;;;;5044852;28;20116;-71
2023/10/21 00:53:46;;;;;;;13.75;8.13;;;11.20;99.90;;;;;;5047112;28;20029;-70
2023/10/21 00:56:12;;;;;;;15.55;8.98;;;11.20;99.90;;;;;;5042682;28;20112;-70
2023/10/21 00:58:37;;;;;;;13.40;8.50;;;11.20;99.90;;;;;;5045389;28;20119;-71
2023/10/21 01:01:06;;;;;;;13.93;9.05;;;11.20;99.90;;;;;;5049371;28;20067;-70
2023/10/21 01:03:33;;;;;;;13.10;8.68;;;11.20;99.90;;;;;;5043168;28;20377;-70
2023/10/21 01:05:59;;;;;;;14.95;8.43;;;11.20;99.90;;;;;;5049478;28;20485;-71
2023/10/21 01:08:24;;;;;;;12.02;8.20;;;11.20;99.90;;;;;;5025714;28;20056;-71
2023/10/21 01:10:50;;;;;;;12.10;7.07;;;11.20;99.90;;;;;;5051892;28;20048;-70
2023/10/21 01:13:16;;;;;;;11.68;7.75;;;11.30;99.90;;;;;;5050344;28;20053;-71
2023/10/21 01:15:41;;;;;;;13.00;7.75;;;11.20;99.90;;;;;;5043352;28;20378;-71
2023/10/21 01:18:07;;;;;;;16.52;8.35;;;11.20;99.90;;;;;;5046814;28;20041;-70
2023/10/21 01:20:33;;;;;;;11.90;7.25;;;11.30;99.90;;;;;;5049276;28;20040;-71
2023/10/21 01:22:59;;;;;;;21.58;8.50;;;11.30;99.90;;;;;;5047917;28;20025;-71
2023/10/21 01:25:25;;;;;;;12.38;7.72;;;11.40;99.90;;;;;;5048046;28;20519;-71
2023/10/21 01:27:54;;;;;;;13.88;7.95;;;11.40;99.90;;;;;;5041561;28;20033;-71
2023/10/21 01:30:20;;;;;;;12.18;7.55;;;11.40;99.90;;;;;;5048723;28;20087;-71
2023/10/21 01:32:47;;;;;;;9.80;6.65;;;11.50;99.90;;;;;;5044021;28;20127;-71
2023/10/21 01:35:17;;;;;;;8.38;7.32;;;11.50;99.90;;;;;;5044929;28;20041;-71
2023/10/21 01:37:43;;;;;;;10.70;7.10;;;11.50;99.90;;;;;;5048500;28;20063;-71
2023/10/21 01:40:10;;;;;;;9.95;7.10;;;11.50;99.90;;;;;;5047822;28;20485;-71
2023/10/21 01:42:39;;;;;;;12.60;7.22;;;11.60;99.90;;;;;;5050630;28;20029;-71
2023/10/21 01:45:06;;;;;;;11.02;7.60;;;11.50;99.90;;;;;;5049232;28;20416;-71
2023/10/21 01:47:32;;;;;;;11.32;7.13;;;11.50;99.90;;;;;;5046777;28;20382;-71
2023/10/21 01:49:58;;;;;;;9.13;6.38;;;11.50;99.90;;;;;;5050734;28;20025;-71
2023/10/21 01:52:24;;;;;;;12.73;6.63;;;11.50;99.90;;;;;;5027542;28;20052;-71
2023/10/21 01:54:50;;;;;;;11.75;6.72;;;11.40;99.90;;;;;;5042708;28;20033;-71
2023/10/21 01:57:15;;;;;;;8.23;5.75;;;11.40;99.90;;;;;;5046424;28;20032;-71
2023/10/21 01:59:42;;;;;;;11.35;7.03;;;11.40;99.90;;;;;;5050754;28;20114;-71
2023/10/21 02:02:07;;;;;;;11.80;6.30;;;11.40;99.90;;;;;;5030654;28;20021;-71
2023/10/21 02:04:33;;;;;;;13.18;6.78;;;11.40;99.90;;;;;;5043178;28;20040;-71
2023/10/21 02:06:59;;;;;;;8.57;6.57;;;11.40;99.90;;;;;;5049375;28;20446;-71
2023/10/21 02:09:25;;;;;;;10.48;7.40;;;11.40;99.90;;;;;;5045067;28;20037;-71
2023/10/21 02:11:54;;;;;;;12.30;6.55;;;11.40;99.90;;;;;;5039006;28;20020;-71
2023/10/21 02:14:22;;;;;;;13.00;7.03;;;11.50;99.90;;;;;;5049476;28;20028;-71
2023/10/21 02:16:52;;;;;;;8.85;6.47;;;11.40;99.90;;;;;;5050300;28;20032;-71
2023/10/21 02:19:18;;;;;;;10.75;6.53;;;11.50;99.90;;;;;;5040716;28;20045;-71
2023/10/21 02:21:43;;;;;;;11.27;7.32;;;11.50;99.90;;;;;;5043106;28;20027;-71
2023/10/21 02:24:09;;;;;;;11.95;7.32;;;11.50;99.90;;;;;;5046422;28;20028;-71
2023/10/21 02:26:34;;;;;;;8.20;6.35;;;11.50;99.90;;;;;;5048146;28;20103;-71
2023/10/21 02:29:00;;;;;;;9.90;6.57;;;11.50;99.90;;;;;;5045616;28;20052;-71
2023/10/21 02:31:25;;;;;;;10.82;7.03;;;11.60;99.90;;;;;;5044960;28;20516;-71
2023/10/21 02:33:52;;;;;;;8.60;6.13;;;11.60;99.90;;;;;;5041689;28;20370;-71
2023/10/21 02:36:18;;;;;;;8.90;6.30;;;11.70;99.90;;;;;;5039835;28;20048;-71
2023/10/21 02:38:43;;;;;;;8.55;5.90;;;11.70;99.90;;;;;;5048043;28;20037;-71
2023/10/21 02:41:09;;;;;;;11.38;6.47;;;11.70;99.90;;;;;;5031376;28;20376;-71
2023/10/21 02:43:34;;;;;;;8.02;6.40;;;11.70;99.90;;;;;;5046619;28;20029;-71
2023/10/21 02:46:10;;;;;;;13.85;6.95;;;11.80;99.90;;;;;;5048572;28;20091;-71
2023/10/21 02:48:36;;;;;;;12.73;6.85;;;11.80;99.90;;;;;;5048811;28;20039;-71
2023/10/21 02:51:12;;;;;;;9.80;6.40;;;11.80;99.90;;;;;;5047361;28;20029;-71
2023/10/21 02:53:37;;;;;;;9.88;6.28;;;11.80;99.90;;;;;;5039105;28;20443;-71
2023/10/21 02:56:07;;;;;;;12.88;6.78;;;11.80;99.90;;;;;;5038005;28;20162;-71
2023/10/21 02:58:34;;;;;;;12.48;6.13;;;11.80;99.90;;;;;;5048425;28;20409;-71
2023/10/21 03:01:20;;;;;;;10.32;6.45;;;11.80;99.90;;;;;;5041131;28;20452;-71
2023/10/21 03:03:47;;;;;;;9.75;6.18;;;11.80;99.90;;;;;;5045805;28;20044;-71
2023/10/21 03:06:15;;;;;;;12.60;5.97;;;11.80;99.90;;;;;;5035829;28;20029;-71
2023/10/21 03:08:40;;;;;;;8.65;6.32;;;11.80;99.90;;;;;;5047034;28;20091;-71
2023/10/21 03:11:07;;;;;;;10.77;6.78;;;11.80;99.90;;;;;;5046818;28;20415;-71
2023/10/21 03:13:34;;;;;;;9.63;5.70;;;11.90;99.90;;;;;;5046956;28;20048;-71
2023/10/21 03:16:05;;;;;;;15.90;6.05;;;11.90;99.90;;;;;;5046580;28;20025;-71
2023/10/21 03:18:30;;;;;;;9.68;5.57;;;11.90;99.90;;;;;;5049906;28;20065;-71
2023/10/21 03:20:56;;;;;;;11.38;6.82;;;11.90;99.90;;;;;;5043547;28;20072;-71
2023/10/21 03:23:22;;;;;;;11.15;6.35;;;11.90;99.90;;;;;;5038532;28;20556;-71
2023/10/21 03:25:57;;;;;;;6.60;5.10;;;12.00;99.90;;;;;;5048919;28;20469;-71
2023/10/21 03:28:23;;;;;;;11.35;6.38;;;12.00;99.90;;;;;;5049292;28;20057;-71
2023/10/21 03:30:50;;;;;;;8.63;5.60;;;12.00;99.90;;;;;;5046216;28;20029;-71
2023/10/21 03:33:16;;;;;;;10.27;7.00;;;12.00;99.90;;;;;;5046514;28;20021;-71
2023/10/21 03:35:58;;;;;;;9.80;6.20;;;12.00;99.90;;;;;;5033514;28;20050;-71
2023/10/21 03:38:24;;;;;;;9.20;6.10;;;12.00;99.90;;;;;;5041781;28;20036;-71
2023/10/21 03:41:06;;;;;;;7.85;5.53;;;11.90;99.90;;;;;;5047807;28;20512;-71
2023/10/21 03:43:45;;;;;;;12.27;5.93;;;11.90;99.90;;;;;;5018626;28;20415;-69
2023/10/21 03:46:14;;;;;;;9.68;5.60;;;11.90;99.90;;;;;;5004287;28;20072;-69
2023/10/21 03:48:40;;;;;;;8.25;5.72;;;11.90;99.90;;;;;;5005066;28;20034;-69
2023/10/21 03:51:11;;;;;;;10.38;5.75;;;11.90;99.90;;;;;;5003407;28;20071;-69
2023/10/21 03:53:37;;;;;;;9.27;6.07;;;11.90;99.90;;;;;;5003139;28;20486;-69
2023/10/21 03:56:03;;;;;;;11.07;5.43;;;11.90;99.90;;;;;;5004830;28;20034;-69
2023/10/21 03:58:29;;;;;;;7.03;5.60;;;11.90;99.90;;;;;;5004384;28;20029;-69
2023/10/21 04:00:57;;;;;;;9.38;5.30;;;11.90;99.90;;;;;;5004802;28;20054;-69
2023/10/21 04:03:24;;;;;;;9.80;6.00;;;11.90;99.90;;;;;;4998561;28;20034;-69
2023/10/21 04:05:50;;;;;;;9.77;5.72;;;11.90;99.90;;;;;;5002958;28;20085;-69
2023/10/21 04:08:16;;;;;;;10.65;5.45;;;11.90;99.90;;;;;;5003451;28;20155;-69
2023/10/21 04:10:41;;;;;;;11.02;5.97;;;11.90;99.90;;;;;;5005560;28;20045;-69
2023/10/21 04:13:07;;;;;;;13.45;5.53;;;11.90;99.90;;;;;;5000555;28;20036;-69
2023/10/21 04:15:32;;;;;;;10.73;4.65;;;11.90;99.90;;;;;;5001038;28;20026;-69
2023/10/21 04:17:58;;;;;;;9.18;5.43;;;11.90;99.90;;;;;;5002518;28;20022;-69
2023/10/21 04:20:24;;;;;;;6.60;4.53;;;11.80;99.90;;;;;;5003886;28;20042;-69
2023/10/21 04:22:49;;;;;;;13.77;5.00;;;11.80;99.90;;;;;;5003629;28;20038;-69
2023/10/21 04:25:16;;;;;;;11.32;5.05;;;11.90;99.90;;;;;;5002396;28;20030;-70
2023/10/21 04:27:42;;;;;;;11.98;5.13;;;11.90;99.90;;;;;;5001500;28;20069;-69
2023/10/21 04:30:08;;;;;;;9.10;5.28;;;11.90;99.90;;;;;;5002197;28;20026;-69
2023/10/21 04:32:34;;;;;;;7.50;5.05;;;11.90;99.90;;;;;;5003270;28;20034;-69
2023/10/21 04:35:00;;;;;;;10.80;5.50;;;11.80;99.90;;;;;;5001279;28;20386;-70
2023/10/21 04:37:26;;;;;;;9.80;5.50;;;11.90;99.90;;;;;;5000941;28;20022;-69
2023/10/21 04:39:52;;;;;;;13.38;5.93;;;11.90;99.90;;;;;;5019136;28;20031;-70
2023/10/21 04:42:18;;;;;;;9.25;5.13;;;11.90;99.90;;;;;;5042520;28;20042;-70
2023/10/21 04:44:44;;;;;;;9.52;5.65;;;11.90;99.90;;;;;;5020052;28;20041;-70
2023/10/21 04:47:11;;;;;;;8.18;5.53;;;11.90;99.90;;;;;;5004491;28;20422;-69
2023/10/21 04:49:36;;;;;;;9.60;4.85;;;11.80;99.90;;;;;;5004246;28;20485;-69
2023/10/21 04:52:03;;;;;;;7.22;4.50;;;11.90;99.90;;;;;;5004647;28;20034;-71
2023/10/21 04:54:28;;;;;;;7.30;4.78;;;11.90;99.90;;;;;;4993226;28;20027;-71
2023/10/21 04:56:54;;;;;;;7.70;5.43;;;11.90;99.90;;;;;;4986105;28;20482;-71
2023/10/21 04:59:20;;;;;;;10.60;5.05;;;11.90;99.90;;;;;;4990488;28;20046;-71
2023/10/21 05:01:46;;;;;;;7.55;4.43;;;12.00;99.90;;;;;;4987912;28;20088;-71
2023/10/21 05:04:11;;;;;;;8.60;5.05;;;12.00;99.90;;;;;;4989086;28;20041;-70
2023/10/21 05:06:37;;;;;;;10.00;5.05;;;12.00;99.90;;;;;;4989851;28;20034;-71
2023/10/21 05:09:03;;;;;;;6.85;4.65;;;12.00;99.90;;;;;;4986320;28;20035;-71
2023/10/21 05:11:29;;;;;;;10.00;4.82;;;12.10;99.90;;;;;;4990816;28;20524;-71
2023/10/21 05:13:54;;;;;;;6.82;4.38;;;12.10;99.90;;;;;;4989404;28;20050;-71
2023/10/21 05:16:20;;;;;;;12.50;4.90;;;12.10;99.90;;;;;;4991619;28;20034;-71
2023/10/21 05:18:45;;;;;;;14.40;4.40;;;12.20;99.90;;;;;;4982686;28;20027;-71
2023/10/21 05:21:11;;;;;;;5.70;3.38;;;12.20;99.90;;;;;;4978710;28;20034;-71
2023/10/21 05:23:36;;;;;;;8.18;4.13;;;12.20;99.90;;;;;;4988501;28;20046;-69
2023/10/21 05:26:02;;;;;;;11.52;4.40;;;12.20;99.90;;;;;;5012455;28;20028;-69
2023/10/21 05:28:28;;;;;;;6.60;3.97;;;12.20;99.90;;;;;;4989563;28;20030;-71
2023/10/21 05:30:53;;;;;;;12.75;3.88;;;12.30;99.90;;;;;;4989529;28;20045;-70
2023/10/21 05:33:19;;;;;;;8.10;4.28;;;12.20;99.90;;;;;;4986987;28;20035;-71
2023/10/21 05:35:44;;;;;;;9.98;5.25;;;12.20;99.90;;;;;;4988284;28;20034;-71
2023/10/21 05:38:10;;;;;;;9.02;3.95;;;12.10;99.90;;;;;;4990796;28;20035;-71
2023/10/21 05:40:37;;;;;;;8.95;4.20;;;12.20;99.90;;;;;;4991139;28;20026;-71
2023/10/21 05:43:02;;;;;;;10.50;3.88;;;12.10;99.90;;;;;;4989121;28;20038;-71
2023/10/21 05:45:28;;;;;;;7.93;3.67;;;12.10;99.90;;;;;;4987037;28;20023;-71
2023/10/21 05:47:54;;;;;;;11.45;4.20;;;12.10;99.90;;;;;;4990663;28;20034;-71
2023/10/21 05:50:21;;;;;;;6.75;4.13;;;12.10;99.90;;;;;;4989220;28;20503;-71
2023/10/21 05:52:47;;;;;;;8.55;3.92;;;12.10;99.90;;;;;;4987567;28;20030;-71
2023/10/21 05:55:13;;;;;;;10.00;4.30;;;12.10;99.90;;;;;;4985313;28;20077;-71
2023/10/21 05:57:38;;;;;;;10.00;4.15;;;12.10;99.90;;;;;;4990166;28;20034;-71
2023/10/21 06:00:06;;;;;;;11.88;4.60;;;12.10;99.90;;;;;;4989644;28;20061;-71
2023/10/21 06:02:32;;;;;;;6.95;4.43;;;12.20;99.90;;;;;;4994503;28;20137;-70
2023/10/21 06:04:58;;;;;;;8.50;4.30;;;12.20;99.90;;;;;;4989662;28;20034;-71
2023/10/21 06:07:23;;;;;;;7.95;4.57;;;12.30;99.90;;;;;;4987661;28;20539;-71
2023/10/21 06:09:49;;;;;;;8.88;4.80;;;12.40;99.90;;;;;;4989587;28;20136;-71
2023/10/21 06:12:14;;;;;;;10.68;4.72;;;12.40;99.90;;;;;;4990118;28;20030;-69
2023/10/21 06:14:40;;;;;;;8.63;4.80;;;12.40;99.90;;;;;;4989463;28;20501;-69
2023/10/21 06:17:06;;;;;;;6.05;4.05;;;12.40;99.90;;;;;;4986830;28;20045;-70
2023/10/21 06:19:32;;;;;;;6.57;3.90;;;12.40;99.90;;;;;;4987555;28;20022;-70
2023/10/21 06:21:58;;;;;;;11.98;4.38;;;12.40;99.90;;;;;;4984771;28;20034;-71
2023/10/21 06:24:24;;;;;;;6.68;4.45;;;12.30;99.90;;;;;;4988276;28;20546;-71
2023/10/21 06:26:49;;;;;;;11.57;4.85;;;12.30;99.90;;;;;;4985419;28;20054;-71
2023/10/21 06:29:15;;;;;;;11.98;4.68;;;12.20;99.90;;;;;;4997079;28;20028;-71
2023/10/21 06:31:40;;;;;;;7.78;4.43;;;12.20;99.90;;;;;;4989910;28;20428;-71
2023/10/21 06:34:06;;;;;;;8.52;4.53;;;12.20;99.90;;;;;;4989049;28;20519;-71
2023/10/21 06:36:31;;;;;;;10.30;4.70;;;12.20;99.90;;;;;;4989600;28;20014;-70
2023/10/21 06:38:57;;;;;;;8.07;5.32;;;12.20;99.90;;;;;;4990150;28;20401;-70
2023/10/21 06:41:23;;;;;;;9.85;5.50;;;12.20;99.90;;;;;;5008832;28;20459;-71
2023/10/21 06:43:50;;;;;;;7.90;5.30;;;12.20;99.90;;;;;;4994536;28;20037;-70
2023/10/21 06:46:15;;;;;;;10.93;4.40;;;12.30;99.90;;;;;;4985868;28;20543;-71
2023/10/21 06:48:41;;;;;;;12.10;5.15;;;12.40;99.90;;;;;;4989694;28;20064;-71
2023/10/21 06:51:07;;;;;;;8.52;4.88;;;12.50;99.90;;;;;;4989704;28;20466;-71
2023/10/21 06:53:32;;;;;;;10.38;5.70;;;12.60;99.90;;;;;;4986879;28;20119;-70
2023/10/21 06:55:58;;;;;;;9.65;5.15;;;12.70;99.90;;;;;;4989116;28;20493;-70
2023/10/21 06:58:26;;;;;;;13.07;5.70;;;12.70;99.90;;;;;;4987423;28;20909;-71
2023/10/21 07:00:52;;;;;;;8.90;5.20;;;12.80;99.90;;;;;;4989467;28;20118;-71
2023/10/21 07:03:18;;;;;;;16.70;5.38;;;12.90;99.90;;;;;;4988516;28;20492;-71
2023/10/21 07:05:43;;;;;;;11.98;4.88;;;13.00;99.90;;;;;;4989087;28;20031;-71
2023/10/21 07:08:09;;;;;;;8.05;4.57;;;13.10;99.90;;;;;;4987913;28;20037;-71
2023/10/21 07:10:35;;;;;;;9.25;4.93;;;13.10;99.90;;;;;;4987362;28;20045;-71
2023/10/21 07:13:01;;;;;;;9.20;4.68;;;13.20;99.90;;;;;;4989726;28;20037;-71
2023/10/21 07:15:33;;;;;;;6.32;4.68;;;13.20;99.90;;;;;;4987988;28;20027;-71
2023/10/21 07:17:59;;;;;;;9.95;4.40;;;13.20;99.90;;;;;;4983003;28;20027;-71
2023/10/21 07:20:28;;;;;;;7.90;4.90;;;13.30;99.90;;;;;;4982377;28;20444;-71
2023/10/21 07:22:54;;;;;;;8.68;4.63;;;13.30;99.90;;;;;;4989033;28;20037;-71
2023/10/21 07:25:20;;;;;;;4.72;4.10;;;13.40;99.90;;;;;;4987222;28;20436;-71
2023/10/21 07:27:46;;;;;;;7.57;3.53;;;13.40;99.90;;;;;;4989295;28;20069;-71
2023/10/21 07:30:12;;;;;;;7.20;3.75;;;13.50;99.90;;;;;;4987598;28;20546;-71
2023/10/21 07:32:38;;;;;;;7.97;3.50;;;13.50;99.90;;;;;;4989088;28;20037;-71
2023/10/21 07:35:04;;;;;;;7.30;3.08;;;13.60;99.90;;;;;;4981826;28;20046;-71
2023/10/21 07:37:30;;;;;;;5.20;2.47;;;13.60;99.90;;;;;;4988718;28;20030;-71
2023/10/21 07:39:59;;;;;;;5.85;2.17;;;13.70;99.90;;;;;;4988929;28;20678;-71
2023/10/21 07:42:26;;;;;;;7.60;1.30;;;13.70;99.90;;;;;;4988220;28;20050;-71
2023/10/21 07:44:53;;;;;;;4.45;1.33;;;13.80;99.90;;;;;;4979706;28;20452;-71
2023/10/21 07:47:18;;;;;;;7.15;1.88;;;13.80;99.90;;;;;;4988097;28;20030;-71
2023/10/21 07:49:44;;;;;;;4.40;1.25;;;13.80;99.90;;;;;;4988830;28;20118;-71
2023/10/21 07:52:09;;;;;;;2.20;1.20;;;13.80;99.90;;;;;;4987294;28;20023;-71
2023/10/21 07:54:39;;;;;;;5.72;1.17;;;13.80;99.90;;;;;;4988937;28;20034;-71
2023/10/21 07:57:05;;;;;;;5.20;1.50;;;13.80;99.90;;;;;;4993022;28;20026;-71
2023/10/21 07:59:30;;;;;;;5.20;1.52;;;13.80;99.90;;;;;;4997701;28;20029;-71
2023/10/21 08:01:56;;;;;;;5.50;1.35;;;13.70;99.90;;;;;;4988584;28;20095;-71
2023/10/21 08:04:22;;;;;;;3.25;1.40;;;13.70;99.90;;;;;;4988314;28;20022;-71
2023/10/21 08:06:47;;;;;;;3.92;1.30;;;13.60;99.90;;;;;;4987108;28;20496;-71
2023/10/21 08:09:15;;;;;;;3.30;1.00;;;13.60;99.90;;;;;;4986993;28;20523;-71
2023/10/21 08:11:43;;;;;;;1.10;0.52;;;13.50;99.90;;;;;;4988957;28;20031;-71
2023/10/21 08:14:09;;;;;;;3.22;0.60;;;13.50;99.90;;;;;;4992176;28;20128;-71
2023/10/21 08:16:35;;;;;;;3.03;0.40;;;13.50;99.90;;;;;;4987472;28;20487;-71
2023/10/21 08:19:02;;;;;;;1.48;0.50;;;13.40;99.90;;;;;;4995237;28;20367;-71
2023/10/21 08:21:27;;;;;;;1.27;0.40;;;13.50;99.90;;;;;;4988150;28;20422;-71
2023/10/21 08:23:53;;;;;;;0.80;0.30;;;13.60;99.90;;;;;;4988841;28;20034;-71
2023/10/21 08:26:19;;;;;;;3.17;0.32;;;13.60;99.90;;;;;;4985043;28;20011;-71
2023/10/21 08:28:44;;;;;;;0.55;0.25;;;13.70;99.90;;;;;;4984892;28;20455;-71
2023/10/21 08:31:10;;;;;;;1.73;0.20;;;13.80;99.90;;;;;;4991720;28;20061;-71
2023/10/21 08:33:35;;;;;;;1.77;0.30;;;13.80;99.90;;;;;;4992232;28;20026;-71
2023/10/21 08:36:01;;;;;;;2.92;0.20;;;13.90;99.90;;;;;;4991574;28;20042;-71
2023/10/21 08:38:27;;;;;;;1.00;0.30;;;14.10;99.90;;;;;;4989495;28;20026;-71
2023/10/21 08:40:53;;;;;;;1.27;0.20;;;14.10;99.90;;;;;;4991882;28;20042;-71
2023/10/21 08:43:19;;;;;;;2.03;0.30;;;14.10;99.90;;;;;;4985617;28;20054;-71
2023/10/21 08:45:46;;;;;;;0.85;0.20;;;14.10;99.90;;;;;;4989993;28;20432;-71
2023/10/21 08:48:12;;;;;;;0.47;0.10;;;14.10;99.90;;;;;;4986436;28;20030;-71
2023/10/21 08:50:39;;;;;;;1.17;0.20;;;14.20;99.90;;;;;;4991379;28;20065;-71
2023/10/21 08:53:12;;;;;;;1.27;0.40;;;14.20;99.90;;;;;;4988007;28;20450;-71
2023/10/21 08:55:38;;;;;;;0.63;0.10;;;14.20;99.90;;;;;;4990887;28;20033;-71
2023/10/21 08:58:07;;;;;;;1.63;0.13;;;14.20;99.90;;;;;;4986386;28;20078;-71
2023/10/21 09:00:36;;;;;;;1.75;0.20;;;14.20;99.90;;;;;;4976393;28;20022;-71
2023/10/21 09:03:04;;;;;;;0.90;0.20;;;14.30;99.90;;;;;;4989738;28;20043;-71
2023/10/21 09:05:30;;;;;;;0.45;0.10;;;14.30;99.90;;;;;;4989163;28;20125;-71
2023/10/21 09:07:55;;;;;;;2.25;0.40;;;14.30;99.90;;;;;;4984492;28;20065;-71
2023/10/21 09:10:21;;;;;;;2.00;0.65;;;14.30;99.90;;;;;;4989899;28;20610;-71
2023/10/21 09:12:47;;;;;;;1.65;0.10;;;14.40;99.90;;;;;;4989526;28;20076;-71
2023/10/21 09:15:12;;;;;;;1.83;0.10;;;14.50;99.90;;;;;;4989035;28;20487;-71
2023/10/21 09:17:39;;;;;;;1.88;0.20;;;14.50;99.90;;;;;;4984101;28;20045;-71
2023/10/21 09:20:15;;;;;;;1.15;0.10;;;14.50;99.90;;;;;;4988858;28;20062;-71
2023/10/21 09:22:44;;;;;;;1.77;0.20;;;14.60;99.90;;;;;;4987692;28;20046;-71
2023/10/21 09:25:18;;;;;;;0.90;0.10;;;14.60;99.90;;;;;;4987784;28;20031;-71
2023/10/21 09:27:45;;;;;;;0.57;0.10;;;14.60;99.90;;;;;;4986658;28;20026;-71
2023/10/21 09:30:15;;;;;;;0.95;0.10;;;14.60;99.90;;;;;;4989282;28;20027;-71
2023/10/21 09:32:42;;;;;;;1.65;0.13;;;14.70;99.90;;;;;;4989133;28;20030;-71
2023/10/21 09:35:16;;;;;;;0.68;0.10;;;14.70;99.90;;;;;;4989800;28;20026;-71
2023/10/21 09:37:42;;;;;;;1.75;0.17;;;14.70;99.90;;;;;;4990462;28;20075;-71
2023/10/21 09:40:09;;;;;;;1.58;0.10;;;14.70;99.90;;;;;;4990120;28;20026;-71
2023/10/21 09:42:42;;;;;;;1.90;0.13;;;14.80;99.90;;;;;;4990397;28;20108;-70
2023/10/21 09:45:10;;;;;;;0.73;0.10;;;14.90;99.90;;;;;;4988681;28;20027;-70
2023/10/21 09:47:42;;;;;;;1.33;0.13;;;15.00;99.90;;;;;;4985649;28;20026;-70
2023/10/21 09:50:12;;;;;;;2.42;0.10;;;15.00;99.90;;;;;;4989906;28;20117;-71
2023/10/21 09:52:55;;;;;;;0.90;0.10;;;15.10;99.90;;;;;;4989370;28;20041;-70
2023/10/21 09:55:27;;;;;;;2.80;0.40;;;15.10;99.90;;;;;;4988597;28;20026;-70
2023/10/21 09:57:54;;;;;;;1.30;0.10;;;15.00;99.90;;;;;;4989194;28;20091;-70
2023/10/21 10:00:20;;;;;;;2.90;0.10;;;15.00;99.90;;;;;;4988749;28;20573;-70
2023/10/21 10:02:50;;;;;;;7.82;0.40;;;15.00;99.90;;;;;;4985493;28;20073;-70
2023/10/21 10:05:17;;;;;;;2.35;0.10;;;15.00;99.90;;;;;;4990462;28;20042;-71
2023/10/21 10:07:45;;;;;;;9.60;0.20;;;15.00;99.90;;;;;;4988611;28;20034;-70
2023/10/21 10:10:12;;;;;;;3.22;0.20;;;15.10;99.90;;;;;;4987000;28;20474;-70
2023/10/21 10:13:14;;;;;;;2.45;0.20;;;15.10;99.90;;;;;;4990625;28;20030;-70
2023/10/21 10:15:41;;;;;;;0.88;0.10;;;15.30;99.90;;;;;;4962899;28;20524;-71
2023/10/21 10:18:09;;;;;;;3.92;0.20;;;15.40;99.90;;;;;;4980266;28;20030;-71
2023/10/21 10:20:44;;;;;;;2.58;0.20;;;15.50;99.90;;;;;;4986999;28;20129;-71
2023/10/21 10:23:11;;;;;;;2.83;0.20;;;15.50;99.90;;;;;;4985694;28;20084;-71
2023/10/21 10:25:39;;;;;;;1.40;0.10;;;15.40;99.90;;;;;;4987259;28;20041;-71
2023/10/21 10:28:13;;;;;;;4.72;0.20;;;15.50;99.90;;;;;;4986613;28;20490;-71
2023/10/21 10:30:45;;;;;;;1.27;0.10;;;15.50;99.90;;;;;;4985002;28;20034;-71
2023/10/21 10:33:15;;;;;;;0.80;0.10;;;15.50;99.90;;;;;;4980585;28;20558;-71
2023/10/21 10:35:49;;;;;;;1.10;0.20;;;15.60;99.90;;;;;;4986702;28;20033;-71
2023/10/21 10:38:26;;;;;;;1.65;0.10;;;15.70;99.90;;;;;;4989911;28;20469;-71
2023/10/21 10:40:58;;;;;;;1.48;0.38;;;15.70;99.90;;;;;;4990522;28;20362;-71
2023/10/21 10:43:23;;;;;;;3.63;0.20;;;15.70;99.90;;;;;;4988537;28;20457;-71
2023/10/21 10:45:49;;;;;;;4.05;0.20;;;15.70;99.90;;;;;;4986465;28;20046;-71
2023/10/21 10:48:16;;;;;;;1.65;0.32;;;15.70;99.90;;;;;;4989219;28;20475;-71
2023/10/21 10:50:42;;;;;;;3.13;0.10;;;15.60;99.90;;;;;;4997400;28;20088;-71
2023/10/21 10:53:15;;;;;;;3.42;0.20;;;15.40;99.90;;;;;;4987661;28;20057;-72
2023/10/21 10:55:48;;;;;;;2.88;0.15;;;15.50;99.90;;;;;;4981107;28;20033;-71
2023/10/21 10:58:14;;;;;;;2.95;0.30;;;15.60;99.90;;;;;;4993462;28;20386;-71
2023/10/21 11:00:41;;;;;;;1.27;0.20;;;15.60;99.90;;;;;;4994138;28;20109;-71
2023/10/21 11:03:07;;;;;;;2.58;0.20;;;15.70;99.90;;;;;;4990034;28;20038;-71
2023/10/21 11:05:33;;;;;;;2.38;0.20;;;15.70;99.90;;;;;;4988310;28;20510;-71
2023/10/21 11:07:59;;;;;;;2.55;0.20;;;15.70;99.90;;;;;;4990834;28;20037;-71
2023/10/21 11:10:25;;;;;;;3.90;0.30;;;15.70;99.90;;;;;;4987616;28;20140;-71
2023/10/21 11:12:52;;;;;;;4.97;0.20;;;15.70;99.90;;;;;;4988960;28;20057;-71
2023/10/21 11:15:18;;;;;;;4.10;0.20;;;15.80;99.90;;;;;;4991168;28;20030;-71
2023/10/21 11:17:47;;;;;;;3.85;0.20;;;15.80;99.90;;;;;;4997276;28;20034;-71
2023/10/21 11:20:16;;;;;;;3.80;0.40;;;15.90;99.90;;;;;;4987059;28;20075;-71
2023/10/21 11:22:42;;;;;;;3.60;0.73;;;16.00;99.90;;;;;;4988777;28;20600;-71
2023/10/21 11:25:08;;;;;;;4.93;0.30;;;16.00;99.90;;;;;;4987510;28;20104;-71
2023/10/21 11:27:36;;;;;;;5.00;0.20;;;16.10;99.90;;;;;;4989649;28;20042;-71
2023/10/21 11:30:07;;;;;;;4.20;0.73;;;16.20;99.90;;;;;;4994601;28;20034;-71
2023/10/21 11:32:35;;;;;;;3.65;0.20;;;16.10;99.90;;;;;;4987711;28;20022;-71
2023/10/21 11:35:05;;;;;;;2.75;0.30;;;16.10;99.90;;;;;;4981308;28;20498;-71
2023/10/21 11:37:31;;;;;;;3.83;0.30;;;16.20;99.90;;;;;;4981222;28;20022;-71
2023/10/21 11:39:58;;;;;;;7.03;0.30;;;16.20;99.90;;;;;;5001439;28;20030;-70
2023/10/21 11:42:23;;;;;;;3.85;0.30;;;16.30;99.90;;;;;;5000776;28;20505;-70
2023/10/21 11:45:00;;;;;;;5.25;0.40;;;16.30;99.90;;;;;;4999967;28;20034;-70
2023/10/21 11:47:27;;;;;;;2.88;0.25;;;16.30;99.90;;;;;;5000707;28;20029;-70
2023/10/21 11:49:54;;;;;;;4.63;0.35;;;16.20;99.90;;;;;;5000856;28;20027;-70
2023/10/21 11:52:27;;;;;;;7.38;0.30;;;16.10;99.90;;;;;;5002981;28;20035;-70
2023/10/21 12:07:05;;;;;;;4.85;0.30;;;16.30;99.90;;;;;;4991348;28;20091;-70
2023/10/21 12:30:43;;;;;;;4.30;0.30;;;16.40;99.90;;;;;;4991154;28;20045;-71
2023/10/21 12:33:20;;;;;;;3.38;0.30;;;16.50;99.90;;;;;;4995991;28;20034;-70
2023/10/21 12:39:17;;;;;;;6.22;0.98;;;16.40;99.90;;;;;;4987956;28;20470;-70
2023/10/21 12:41:39;;;;;;;2.83;0.32;;;16.40;99.90;;;;;;4989871;28;20057;-70
2023/10/21 12:44:12;;;;;;;2.90;0.20;;;16.30;99.90;;;;;;4992510;28;20030;-70
2023/10/21 12:46:40;;;;;;;5.72;0.30;;;16.30;99.90;;;;;;4990216;28;20031;-70
2023/10/21 12:49:17;;;;;;;6.07;0.30;;;16.40;99.90;;;;;;4988268;28;20512;-70
2023/10/21 12:51:43;;;;;;;3.65;0.30;;;16.60;99.90;;;;;;4988484;28;20058;-71
2023/10/21 12:54:11;;;;;;;4.78;0.40;;;16.60;99.90;;;;;;4988022;28;20474;-71
2023/10/21 12:56:38;;;;;;;6.68;0.30;;;16.50;99.90;;;;;;4989784;28;20437;-71
2023/10/21 12:59:03;;;;;;;2.53;0.20;;;16.50;99.90;;;;;;4982742;28;20030;-71
2023/10/21 13:01:30;;;;;;;5.00;0.47;;;16.40;99.90;;;;;;4993726;28;20025;-71
2023/10/21 13:03:57;;;;;;;1.75;0.20;;;16.30;99.90;;;;;;4996441;28;20046;-71
2023/10/21 13:06:22;;;;;;;5.80;0.90;;;16.20;99.90;;;;;;4987102;28;20054;-71
2023/10/21 13:08:50;;;;;;;3.35;0.30;;;16.10;99.90;;;;;;4988262;28;20072;-71
2023/10/21 13:11:17;;;;;;;6.28;0.28;;;16.20;99.90;;;;;;4990510;28;20140;-71
2023/10/21 13:13:43;;;;;;;5.93;0.65;;;16.20;99.90;;;;;;4988805;28;20478;-71
2023/10/21 13:16:09;;;;;;;2.78;0.30;;;16.20;99.90;;;;;;4990158;28;20026;-71
2023/10/21 13:18:35;;;;;;;4.20;0.30;;;16.40;99.90;;;;;;4986326;28;20027;-71